createdAt,value
2022-11-27T00:01:47.045Z,104.53
2022-11-27T00:04:17.410Z,67.47
2022-11-27T00:06:45.977Z,46.20
2022-11-27T00:09:17.167Z,23.88
2022-11-27T00:11:46.420Z,38.40
2022-11-27T00:14:17.163Z,76.55
2022-11-27T00:16:45.798Z,46.00
2022-11-27T00:19:14.593Z,30.77
2022-11-27T00:21:44.508Z,58.53
2022-11-27T00:24:13.690Z,25.33
2022-11-27T00:26:42.228Z,28.88
2022-11-27T00:29:11.514Z,22.05
2022-11-27T00:31:40.284Z,9.55
2022-11-27T00:34:10.286Z,25.65
2022-11-27T00:36:43.976Z,8.05
2022-11-27T00:39:16.680Z,12.32
2022-11-27T00:41:45.539Z,56.70
2022-11-27T00:44:15.068Z,26.08
2022-11-27T00:46:44.016Z,25.90
2022-11-27T00:49:15.704Z,21.92
2022-11-27T00:51:44.769Z,29.05
2022-11-27T00:54:13.398Z,17.88
2022-11-27T00:56:43.278Z,7.70
2022-11-27T00:59:13.105Z,6.18
2022-11-27T01:01:44.206Z,14.45
2022-11-27T01:04:16.201Z,8.88
2022-11-27T01:06:45.684Z,10.25
2022-11-27T01:09:15.527Z,8.65
2022-11-27T01:11:45.742Z,8.60
2022-11-27T01:14:18.530Z,7.10
2022-11-27T01:16:47.407Z,6.57
2022-11-27T01:19:16.649Z,6.90
2022-11-27T01:21:45.211Z,8.07
2022-11-27T01:24:16.266Z,5.18
2022-11-27T01:26:46.853Z,16.67
2022-11-27T01:29:15.683Z,8.88
2022-11-27T01:31:44.382Z,7.57
2022-11-27T01:34:17.227Z,10.20
2022-11-27T01:36:46.514Z,11.63
2022-11-27T01:39:19.431Z,6.68
2022-11-27T01:41:50.365Z,6.38
2022-11-27T01:44:55.612Z,7.70
2022-11-27T01:47:42.890Z,10.32
2022-11-27T01:50:18.152Z,7.78
2022-11-27T01:52:52.808Z,7.40
2022-11-27T01:55:29.002Z,5.50
2022-11-27T01:58:02.736Z,5.32
2022-11-27T02:00:32.034Z,5.55
2022-11-27T02:03:00.937Z,5.70
2022-11-27T02:05:30.651Z,6.03
2022-11-27T02:08:04.664Z,5.57
2022-11-27T02:10:45.960Z,6.45
2022-11-27T02:13:26.074Z,5.80
2022-11-27T02:16:07.049Z,5.32
2022-11-27T02:18:45.534Z,4.70
2022-11-27T02:21:21.476Z,5.28
2022-11-27T02:24:30.781Z,6.05
2022-11-27T02:27:21.223Z,6.15
2022-11-27T02:29:57.174Z,5.22
2022-11-27T02:32:32.398Z,5.78
2022-11-27T02:35:07.702Z,5.97
2022-11-27T02:37:41.279Z,5.18
2022-11-27T02:40:14.785Z,5.13
2022-11-27T02:42:49.441Z,6.82
2022-11-27T02:45:24.702Z,4.32
2022-11-27T02:47:53.797Z,6.22
2022-11-27T02:50:27.276Z,4.80
2022-11-27T02:53:02.476Z,6.57
2022-11-27T02:55:35.473Z,6.15
2022-11-27T02:58:09.684Z,5.70
2022-11-27T03:00:41.412Z,4.65
2022-11-27T03:03:14.902Z,4.97
2022-11-27T03:05:48.028Z,4.50
2022-11-27T03:08:25.193Z,7.35
2022-11-27T03:11:00.425Z,5.55
2022-11-27T03:13:30.328Z,7.47
2022-11-27T03:16:12.138Z,6.95
2022-11-27T03:18:48.031Z,6.90
2022-11-27T03:21:26.538Z,7.55
2022-11-27T03:23:55.531Z,7.95
2022-11-27T03:26:24.410Z,17.40
2022-11-27T03:28:55.617Z,28.60
2022-11-27T03:31:26.490Z,25.23
2022-11-27T03:33:55.869Z,37.72
2022-11-27T03:36:24.657Z,30.40
2022-11-27T03:38:55.610Z,15.50
2022-11-27T03:41:35.781Z,7.78
2022-11-27T03:44:17.983Z,10.05
2022-11-27T03:47:04.706Z,9.02
2022-11-27T03:49:45.020Z,8.75
2022-11-27T03:52:26.597Z,11.85
2022-11-27T03:55:06.537Z,49.38
2022-11-27T03:57:42.976Z,33.22
2022-11-27T04:00:14.071Z,17.10
2022-11-27T04:02:47.865Z,7.53
2022-11-27T04:05:17.101Z,7.53
2022-11-27T04:07:46.088Z,8.85
2022-11-27T04:10:14.993Z,34.35
2022-11-27T04:12:44.023Z,33.95
2022-11-27T04:15:13.734Z,30.52
2022-11-27T04:17:43.961Z,8.27
2022-11-27T04:20:14.893Z,8.63
2022-11-27T04:22:43.814Z,13.73
2022-11-27T04:25:12.658Z,7.72
2022-11-27T04:27:41.471Z,7.82
2022-11-27T04:30:13.184Z,7.07
2022-11-27T04:32:43.905Z,7.93
2022-11-27T04:35:12.873Z,8.27
2022-11-27T04:37:41.964Z,14.75
2022-11-27T04:40:12.271Z,32.08
2022-11-27T04:42:41.008Z,12.77
2022-11-27T04:45:10.672Z,13.25
2022-11-27T04:47:39.256Z,52.72
2022-11-27T04:50:10.902Z,11.65
2022-11-27T04:52:39.431Z,10.73
2022-11-27T04:55:09.825Z,8.43
2022-11-27T04:57:38.623Z,10.70
2022-11-27T05:00:09.797Z,6.88
2022-11-27T05:02:38.906Z,7.97
2022-11-27T05:05:10.068Z,11.38
2022-11-27T05:07:39.299Z,6.90
2022-11-27T05:10:09.947Z,8.18
2022-11-27T05:12:38.544Z,9.02
2022-11-27T05:15:09.248Z,5.03
2022-11-27T05:17:37.926Z,6.25
2022-11-27T05:20:10.209Z,6.35
2022-11-27T05:22:38.787Z,7.68
2022-11-27T05:25:08.193Z,7.15
2022-11-27T05:27:37.287Z,6.28
2022-11-27T05:30:07.506Z,7.05
2022-11-27T05:32:36.090Z,5.78
2022-11-27T05:35:05.442Z,8.48
2022-11-27T05:37:35.398Z,8.27
2022-11-27T05:40:04.445Z,8.60
2022-11-27T05:42:33.289Z,7.07
2022-11-27T05:45:02.112Z,8.18
2022-11-27T05:47:31.163Z,9.35
2022-11-27T05:50:00.007Z,9.75
2022-11-27T05:52:28.568Z,8.07
2022-11-27T05:54:58.538Z,8.07
2022-11-27T05:57:28.255Z,7.88
2022-11-27T05:59:56.796Z,8.57
2022-11-27T06:02:29.418Z,7.38
2022-11-27T06:04:58.320Z,7.65
2022-11-27T06:07:28.089Z,7.50
2022-11-27T06:09:58.132Z,8.98
2022-11-27T06:12:26.937Z,7.43
2022-11-27T06:14:55.947Z,9.15
2022-11-27T06:17:24.522Z,7.07
2022-11-27T06:19:53.309Z,6.53
2022-11-27T06:22:22.394Z,7.18
2022-11-27T06:24:51.717Z,7.38
2022-11-27T06:27:21.709Z,7.95
2022-11-27T06:29:50.608Z,8.30
2022-11-27T06:32:19.405Z,6.78
2022-11-27T06:34:48.189Z,8.48
2022-11-27T06:37:17.033Z,5.70
2022-11-27T06:39:45.889Z,5.75
2022-11-27T06:42:14.428Z,6.97
2022-11-27T06:44:44.461Z,27.13
2022-11-27T06:47:13.262Z,13.10
2022-11-27T06:49:42.190Z,9.02
2022-11-27T06:52:11.266Z,5.22
2022-11-27T06:54:40.650Z,5.53
2022-11-27T06:57:09.697Z,5.50
2022-11-27T06:59:38.453Z,6.35
2022-11-27T07:02:10.160Z,9.68
2022-11-27T07:04:38.992Z,24.08
2022-11-27T07:07:08.153Z,24.55
2022-11-27T07:09:36.938Z,9.70
2022-11-27T07:12:06.646Z,10.35
2022-11-27T07:14:35.414Z,9.52
2022-11-27T07:17:04.189Z,10.48
2022-11-27T07:19:34.569Z,8.75
2022-11-27T07:22:03.344Z,8.35
2022-11-27T07:24:31.925Z,6.47
2022-11-27T07:27:00.449Z,7.55
2022-11-27T07:29:28.988Z,11.13
2022-11-27T07:31:57.587Z,10.63
2022-11-27T07:34:26.369Z,19.92
2022-11-27T07:36:56.318Z,25.20
2022-11-27T07:39:46.351Z,23.63
2022-11-27T07:45:02.276Z,18.55
2022-11-27T07:47:31.785Z,21.67
2022-11-27T07:50:00.696Z,19.70
2022-11-27T07:52:30.869Z,21.00
2022-11-27T07:54:59.426Z,20.15
2022-11-27T07:57:29.186Z,20.23
2022-11-27T07:59:57.968Z,22.30
2022-11-27T08:02:26.939Z,19.33
2022-11-27T08:04:56.016Z,18.70
2022-11-27T08:07:30.487Z,22.50
2022-11-27T08:09:59.517Z,17.88
2022-11-27T08:12:28.466Z,17.67
2022-11-27T08:14:57.499Z,18.90
2022-11-27T08:17:26.048Z,16.65
2022-11-27T08:19:54.806Z,12.98
2022-11-27T08:22:23.459Z,13.00
2022-11-27T08:24:53.569Z,11.60
2022-11-27T08:27:22.292Z,13.00
2022-11-27T08:29:51.074Z,13.05
2022-11-27T08:32:19.911Z,11.50
2022-11-27T08:34:48.692Z,12.40
2022-11-27T08:37:17.518Z,10.07
2022-11-27T08:39:46.279Z,10.18
2022-11-27T08:42:16.418Z,12.15
2022-11-27T08:44:44.959Z,11.60
2022-11-27T08:47:15.802Z,11.45
2022-11-27T08:49:46.235Z,14.68
2022-11-27T08:52:15.516Z,16.05
2022-11-27T08:54:44.265Z,14.95
2022-11-27T08:57:13.021Z,14.57
2022-11-27T08:59:42.975Z,20.30
2022-11-27T09:02:14.051Z,24.08
2022-11-27T09:04:42.971Z,18.92
2022-11-27T09:07:14.499Z,19.13
2022-11-27T09:09:43.535Z,23.23
2022-11-27T09:12:12.396Z,22.52
2022-11-27T09:14:42.718Z,18.95
2022-11-27T09:17:11.512Z,14.90
2022-11-27T09:19:40.114Z,15.63
2022-11-27T09:22:08.682Z,15.25
2022-11-27T09:24:38.591Z,18.17
2022-11-27T09:27:07.363Z,18.83
2022-11-27T09:29:36.294Z,27.63
2022-11-27T09:32:06.677Z,30.05
2022-11-27T09:34:37.667Z,25.50
2022-11-27T09:37:07.421Z,20.40
2022-11-27T09:39:36.472Z,25.17
2022-11-27T09:42:08.753Z,33.90
2022-11-27T09:44:43.089Z,32.60
2022-11-27T09:47:22.290Z,30.35
2022-11-27T09:49:55.971Z,30.38
2022-11-27T09:52:29.556Z,30.58
2022-11-27T09:55:03.193Z,31.30
2022-11-27T09:57:38.347Z,29.65
2022-11-27T10:00:13.460Z,17.25
2022-11-27T10:02:45.430Z,17.33
2022-11-27T10:05:21.969Z,24.17
2022-11-27T10:08:19.275Z,29.73
2022-11-27T10:11:01.725Z,25.98
2022-11-27T10:13:43.082Z,23.80
2022-11-27T10:16:23.318Z,20.20
2022-11-27T10:18:57.282Z,26.23
2022-11-27T10:21:37.986Z,15.85
2022-11-27T10:24:20.080Z,10.88
2022-11-27T10:26:51.796Z,7.88
2022-11-27T10:29:36.935Z,13.48
2022-11-27T10:32:32.966Z,13.48
2022-11-27T10:35:06.957Z,9.70
2022-11-27T10:37:43.235Z,10.88
2022-11-27T10:40:26.916Z,8.70
2022-11-27T10:43:04.744Z,10.98
2022-11-27T10:45:43.949Z,10.25
2022-11-27T10:48:13.837Z,12.48
2022-11-27T10:50:45.967Z,15.98
2022-11-27T10:53:26.915Z,14.32
2022-11-27T10:56:41.584Z,12.10
2022-11-27T10:59:15.461Z,21.65
2022-11-27T11:01:47.271Z,18.45
2022-11-27T11:04:37.486Z,16.10
2022-11-27T11:07:27.472Z,11.95
2022-11-27T11:09:56.949Z,10.65
2022-11-27T11:12:25.923Z,26.73
2022-11-27T11:14:56.533Z,16.63
2022-11-27T11:17:28.128Z,13.35
2022-11-27T11:19:57.090Z,14.32
2022-11-27T11:22:28.666Z,12.13
2022-11-27T11:25:00.144Z,12.00
2022-11-27T11:27:32.364Z,13.65
2022-11-27T11:30:03.089Z,12.98
2022-11-27T11:32:34.847Z,10.27
2022-11-27T11:35:10.164Z,13.57
2022-11-27T11:37:43.988Z,13.80
2022-11-27T11:40:25.088Z,10.57
2022-11-27T11:42:57.399Z,9.65
2022-11-27T11:45:31.223Z,8.93
2022-11-27T11:48:03.576Z,9.65
2022-11-27T11:50:41.193Z,9.05
2022-11-27T11:53:18.379Z,9.02
2022-11-27T11:56:01.005Z,9.18
2022-11-27T11:58:52.316Z,8.05
2022-11-27T12:01:56.834Z,9.70
2022-11-27T12:04:46.518Z,10.88
2022-11-27T12:07:29.499Z,9.45
2022-11-27T12:10:09.788Z,13.02
2022-11-27T12:12:57.346Z,12.70
2022-11-27T12:15:31.177Z,10.13
2022-11-27T12:18:06.841Z,15.55
2022-11-27T12:20:52.458Z,13.68
2022-11-27T12:23:43.887Z,10.13
2022-11-27T12:26:26.765Z,9.82
2022-11-27T12:29:35.682Z,8.98
2022-11-27T12:32:42.363Z,13.38
2022-11-27T12:35:44.720Z,9.48
2022-11-27T12:38:40.635Z,12.63
2022-11-27T12:41:56.088Z,10.88
2022-11-27T12:44:32.051Z,8.27
2022-11-27T12:47:04.873Z,7.78
2022-11-27T12:49:40.201Z,11.88
2022-11-27T12:52:16.048Z,11.50
2022-11-27T12:54:53.309Z,8.57
2022-11-27T12:57:31.854Z,7.50
2022-11-27T13:00:06.398Z,8.18
2022-11-27T13:02:39.804Z,7.25
2022-11-27T13:05:13.660Z,8.32
2022-11-27T13:07:47.681Z,11.07
2022-11-27T13:10:25.572Z,8.60
2022-11-27T13:13:03.649Z,11.05
2022-11-27T13:15:38.816Z,9.57
2022-11-27T13:18:20.212Z,10.10
2022-11-27T13:20:52.525Z,12.15
2022-11-27T13:23:22.007Z,11.63
2022-11-27T13:25:56.181Z,11.55
2022-11-27T13:28:33.007Z,9.60
2022-11-27T13:31:03.227Z,9.27
2022-11-27T13:33:39.229Z,7.97
2022-11-27T13:36:19.807Z,7.10
2022-11-27T13:38:56.896Z,9.50
2022-11-27T13:41:34.073Z,7.72
2022-11-27T13:44:10.320Z,5.70
2022-11-27T13:46:49.703Z,3.95
2022-11-27T13:49:28.701Z,4.90
2022-11-27T13:52:11.413Z,4.95
2022-11-27T13:54:40.788Z,4.50
2022-11-27T13:57:17.499Z,4.38
2022-11-27T14:00:03.013Z,4.40
2022-11-27T14:02:46.850Z,4.60
2022-11-27T14:05:18.006Z,5.55
2022-11-27T14:07:50.139Z,9.45
2022-11-27T14:10:22.905Z,8.80
2022-11-27T14:12:54.964Z,8.23
2022-11-27T14:15:27.934Z,7.65
2022-11-27T14:18:09.487Z,6.72
2022-11-27T14:20:48.311Z,7.72
2022-11-27T14:23:30.140Z,8.18
2022-11-27T14:26:21.812Z,7.00
2022-11-27T14:28:53.645Z,5.68
2022-11-27T14:31:31.687Z,8.60
2022-11-27T14:34:23.132Z,9.18
2022-11-27T14:36:53.856Z,11.75
2022-11-27T14:39:29.964Z,8.73
2022-11-27T14:42:00.989Z,10.75
2022-11-27T14:44:30.599Z,12.63
2022-11-27T14:47:04.872Z,10.55
2022-11-27T14:49:34.632Z,10.45
2022-11-27T14:52:07.211Z,10.68
2022-11-27T14:54:39.938Z,10.65
2022-11-27T14:57:16.561Z,9.85
2022-11-27T14:59:45.380Z,13.52
2022-11-27T15:02:26.068Z,11.05
2022-11-27T15:05:05.970Z,10.15
2022-11-27T15:07:45.229Z,10.60
2022-11-27T15:10:29.432Z,10.65
2022-11-27T15:12:59.391Z,7.95
2022-11-27T15:15:30.130Z,8.57
2022-11-27T15:18:04.056Z,9.43
2022-11-27T15:20:40.219Z,11.85
2022-11-27T15:23:18.471Z,11.52
2022-11-27T15:25:50.431Z,6.68
2022-11-27T15:28:35.139Z,15.10
2022-11-27T15:31:23.393Z,14.65
2022-11-27T15:34:01.866Z,14.88
2022-11-27T15:36:39.176Z,15.00
2022-11-27T15:39:21.258Z,13.35
2022-11-27T15:41:56.571Z,14.95
2022-11-27T15:44:26.657Z,9.32
2022-11-27T15:46:58.710Z,8.15
2022-11-27T15:49:29.003Z,6.57
2022-11-27T15:51:58.636Z,7.47
2022-11-27T15:54:27.819Z,12.18
2022-11-27T15:56:56.416Z,11.10
2022-11-27T15:59:27.390Z,15.02
2022-11-27T16:01:58.212Z,15.45
2022-11-27T16:04:28.548Z,15.20
2022-11-27T16:06:57.076Z,15.90
2022-11-27T16:09:26.213Z,15.07
2022-11-27T16:11:55.001Z,14.50
2022-11-27T16:14:23.776Z,15.05
2022-11-27T16:16:52.381Z,15.15
2022-11-27T16:19:21.609Z,12.57
2022-11-27T16:21:51.547Z,14.27
2022-11-27T16:24:20.115Z,13.93
2022-11-27T16:26:49.000Z,9.38
2022-11-27T16:29:17.770Z,9.98
2022-11-27T16:31:46.403Z,11.38
2022-11-27T16:34:17.073Z,11.13
2022-11-27T16:36:46.229Z,16.38
2022-11-27T16:39:18.637Z,13.75
2022-11-27T16:41:47.387Z,13.18
2022-11-27T16:44:17.108Z,22.73
2022-11-27T16:46:45.665Z,22.00
2022-11-27T16:49:14.998Z,17.25
2022-11-27T16:51:44.922Z,16.85
2022-11-27T16:54:16.101Z,13.10
2022-11-27T16:56:45.452Z,13.80
2022-11-27T16:59:16.110Z,12.43
2022-11-27T17:01:45.575Z,11.93
2022-11-27T17:04:19.620Z,9.73
2022-11-27T17:06:49.754Z,12.45
2022-11-27T17:09:20.544Z,9.57
2022-11-27T17:11:50.137Z,24.77
2022-11-27T17:14:20.483Z,24.35
2022-11-27T17:16:49.705Z,25.13
2022-11-27T17:19:19.479Z,21.58
2022-11-27T17:21:48.205Z,19.15
2022-11-27T17:24:19.509Z,23.08
2022-11-27T17:26:49.985Z,19.58
2022-11-27T17:29:21.768Z,13.20
2022-11-27T17:31:51.339Z,17.65
2022-11-27T17:34:20.790Z,27.35
2022-11-27T17:36:53.647Z,30.88
2022-11-27T17:39:24.141Z,31.17
2022-11-27T17:41:53.179Z,34.35
2022-11-27T17:44:21.721Z,38.03
2022-11-27T17:46:50.840Z,35.55
2022-11-27T17:49:22.160Z,24.45
2022-11-27T17:51:51.234Z,22.10
2022-11-27T17:54:20.042Z,21.38
2022-11-27T17:56:51.832Z,20.98
2022-11-27T17:59:20.865Z,24.30
2022-11-27T18:01:53.248Z,24.85
2022-11-27T18:04:22.400Z,21.23
2022-11-27T18:06:51.268Z,23.45
2022-11-27T18:09:20.182Z,17.92
2022-11-27T18:11:50.348Z,20.50
2022-11-27T18:14:19.141Z,22.75
2022-11-27T18:16:47.885Z,20.58
2022-11-27T18:19:16.742Z,18.17
2022-11-27T18:21:45.509Z,17.55
2022-11-27T18:24:23.170Z,20.60
2022-11-27T18:27:10.567Z,21.70
2022-11-27T18:29:43.139Z,16.15
2022-11-27T18:32:12.688Z,17.90
2022-11-27T18:34:42.216Z,16.98
2022-11-27T18:37:12.229Z,15.80
2022-11-27T18:39:44.742Z,14.68
2022-11-27T18:42:15.559Z,18.83
2022-11-27T18:44:45.383Z,18.38
2022-11-27T18:47:15.161Z,15.77
2022-11-27T18:49:44.468Z,20.08
2022-11-27T18:52:13.619Z,19.23
2022-11-27T18:54:42.242Z,17.85
2022-11-27T18:57:11.375Z,15.27
2022-11-27T18:59:44.794Z,17.52
2022-11-27T19:02:13.741Z,15.02
2022-11-27T19:04:44.338Z,15.38
2022-11-27T19:07:13.192Z,13.25
2022-11-27T19:09:42.343Z,14.15
2022-11-27T19:12:12.292Z,10.93
2022-11-27T19:14:42.405Z,12.40
2022-11-27T19:17:11.193Z,12.05
2022-11-27T19:19:55.942Z,10.20
2022-11-27T19:22:24.561Z,11.35
2022-11-27T19:24:53.092Z,14.95
2022-11-27T19:27:21.688Z,14.68
2022-11-27T19:29:51.727Z,15.32
2022-11-27T19:32:20.276Z,13.73
2022-11-27T19:34:51.434Z,12.25
2022-11-27T19:37:33.637Z,14.02
2022-11-27T19:40:04.094Z,16.02
2022-11-27T19:42:33.430Z,15.98
2022-11-27T19:45:03.985Z,15.70
2022-11-27T19:47:32.767Z,13.90
2022-11-27T19:50:01.351Z,10.35
2022-11-27T19:52:29.931Z,11.05
2022-11-27T19:54:58.761Z,14.45
2022-11-27T19:57:28.584Z,15.30
2022-11-27T19:59:57.346Z,15.52
2022-11-27T20:02:27.499Z,13.85
2022-11-27T20:04:56.352Z,10.45
2022-11-27T20:07:25.283Z,12.95
2022-11-27T20:09:54.989Z,15.98
2022-11-27T20:12:23.613Z,19.23
2022-11-27T20:14:52.378Z,12.35
2022-11-27T20:17:21.017Z,17.38
2022-11-27T20:19:51.380Z,21.52
2022-11-27T20:22:19.955Z,18.48
2022-11-27T20:25:11.552Z,18.02
2022-11-27T20:27:37.776Z,16.45
2022-11-27T20:30:08.850Z,20.50
2022-11-27T20:32:37.677Z,22.80
2022-11-27T20:35:08.360Z,17.75
2022-11-27T20:37:38.228Z,24.60
2022-11-27T20:40:08.918Z,19.42
2022-11-27T20:42:37.704Z,17.20
2022-11-27T20:45:07.709Z,16.02
2022-11-27T20:47:37.074Z,16.80
2022-11-27T20:50:09.319Z,18.92
2022-11-27T20:52:38.436Z,17.20
2022-11-27T20:55:08.788Z,20.75
2022-11-27T20:57:37.589Z,15.30
2022-11-27T21:00:09.280Z,19.30
2022-11-27T21:02:40.865Z,17.70
2022-11-27T21:05:12.227Z,18.90
2022-11-27T21:07:43.975Z,20.08
2022-11-27T21:10:16.757Z,21.42
2022-11-27T21:12:45.733Z,22.20
2022-11-27T21:15:14.433Z,16.95
2022-11-27T21:17:42.984Z,15.32
2022-11-27T21:20:14.688Z,17.00
2022-11-27T21:22:44.148Z,16.77
2022-11-27T21:25:13.217Z,18.48
2022-11-27T21:27:41.795Z,14.80
2022-11-27T21:30:11.319Z,18.75
2022-11-27T21:32:39.879Z,19.42
2022-11-27T21:35:09.433Z,18.08
2022-11-27T21:37:39.386Z,18.05
2022-11-27T21:40:09.824Z,14.48
2022-11-27T21:42:44.226Z,13.10
2022-11-27T21:45:13.824Z,15.30
2022-11-27T21:47:42.385Z,13.00
2022-11-27T21:50:13.988Z,12.65
2022-11-27T21:52:44.168Z,10.07
2022-11-27T21:55:12.741Z,11.45
2022-11-27T21:57:41.393Z,11.32
2022-11-27T22:00:11.170Z,11.65
2022-11-27T22:02:39.997Z,12.32
2022-11-27T22:05:10.009Z,13.02
2022-11-27T22:07:38.880Z,12.55
2022-11-27T22:10:12.271Z,15.02
2022-11-27T22:12:40.840Z,12.73
2022-11-27T22:15:10.592Z,13.50
2022-11-27T22:17:39.416Z,14.10
2022-11-27T22:20:09.671Z,13.70
2022-11-27T22:22:38.222Z,15.60
2022-11-27T22:25:07.748Z,13.88
2022-11-27T22:27:37.969Z,13.75
2022-11-27T22:30:08.625Z,14.27
2022-11-27T22:32:37.376Z,12.50
2022-11-27T22:35:07.006Z,13.90
2022-11-27T22:37:35.552Z,13.23
2022-11-27T22:40:04.656Z,12.63
2022-11-27T22:42:33.496Z,12.10
2022-11-27T22:45:03.502Z,10.85
2022-11-27T22:47:32.047Z,12.50
2022-11-27T22:50:00.888Z,11.80
2022-11-27T22:52:30.372Z,10.57
2022-11-27T22:54:59.209Z,12.27
2022-11-27T22:57:27.769Z,9.70
2022-11-27T22:59:56.535Z,10.75
2022-11-27T23:02:27.369Z,10.13
2022-11-27T23:04:55.941Z,9.63
2022-11-27T23:07:25.460Z,10.45
2022-11-27T23:09:54.481Z,10.57
2022-11-27T23:12:23.089Z,11.05
2022-11-27T23:14:51.971Z,11.65
2022-11-27T23:17:20.537Z,15.52
2022-11-27T23:19:50.488Z,15.60
2022-11-27T23:22:19.326Z,16.33
2022-11-27T23:24:47.860Z,19.65
2022-11-27T23:27:16.473Z,19.63
2022-11-27T23:29:45.244Z,19.77
2022-11-27T23:32:13.914Z,18.85
2022-11-27T23:34:42.706Z,19.05
2022-11-27T23:37:12.835Z,22.23
2022-11-27T23:39:41.628Z,22.98
2022-11-27T23:42:10.240Z,17.77
2022-11-27T23:44:38.991Z,16.02
2022-11-27T23:47:08.175Z,16.45
2022-11-27T23:49:36.724Z,19.35
2022-11-27T23:52:05.762Z,16.77
2022-11-27T23:54:35.733Z,16.13
2022-11-27T23:57:04.822Z,15.88
2022-11-27T23:59:33.386Z,15.00
